Weather at Brampton (National D) Heliport

Public forecast

Using degrees Celsius for public forecast. Weather courtesy of forecast.io.

Closest aviation weather report (METAR) to Brampton (National D) Heliport

Closest report is Toronto Lester B. Pearson International Airport, 9.9 nm (18.3 km) SSE.

2024/05/30 05:00 (retrieved 1 hour ago)

CYYZ 300500Z 35014KT 15SM SKC 11/02 A3008 RMK SLP189

Closest aviation forecast (TAF) to Brampton (National D) Heliport

Closest forecast is Toronto Lester B. Pearson International Airport, 9.9 nm (18.3 km) SSE.

2024/05/30 06:42 (retrieved 0 seconds ago)

TAF CYYZ 300540Z 3006/3112 35012KT P6SM SKC FM301500 35008G18KT P6SM SKC BECMG 3018/3020 34012KT RMK NXT FCST BY 300900Z